Time;durP1;ratioP1;P1;durP2;ratioP2;P2;SDS_P1;SDS_P2;PMS_P1;PMS_P2;Temp;Humidity;BMP_temperature;BMP_pressure;BME280_temperature;BME280_humidity;BME280_pressure;Samples;Min_cycle;Max_cycle;Signal;HPM_P1;HPM_P2
2023/10/04 00:01:22;;;;;;;;;;;22.00;53.50;;;;;;5076531;28;19920;-74
2023/10/04 00:03:48;;;;;;;;;;;22.10;53.70;;;;;;5076261;28;19920;-73
2023/10/04 00:06:17;;;;;;;;;;;22.10;53.60;;;;;;5077126;28;19928;-74
2023/10/04 00:08:44;;;;;;;;;;;22.10;53.70;;;;;;5085686;28;19924;-73
2023/10/04 00:11:13;;;;;;;;;;;22.00;53.50;;;;;;5077949;28;19928;-74
2023/10/04 00:13:43;;;;;;;;;;;22.10;53.70;;;;;;5087220;28;19999;-73
2023/10/04 00:16:10;;;;;;;;;;;22.00;53.60;;;;;;5074108;28;19920;-73
2023/10/04 00:18:38;;;;;;;;;;;22.00;53.60;;;;;;5080235;28;19920;-72
2023/10/04 00:21:10;;;;;;;;;;;22.00;53.50;;;;;;5082686;28;19927;-73
2023/10/04 00:23:37;;;;;;;;;;;22.00;53.50;;;;;;5070784;28;19920;-73
2023/10/04 00:26:05;;;;;;;;;;;22.00;53.50;;;;;;5079994;28;19920;-71
2023/10/04 00:28:32;;;;;;;;;;;22.00;53.40;;;;;;5066853;28;20024;-74
2023/10/04 00:30:59;;;;;;;;;;;22.00;53.40;;;;;;5073415;28;19927;-73
2023/10/04 00:33:26;;;;;;;;;;;22.00;53.40;;;;;;5076804;28;19963;-73
2023/10/04 00:35:54;;;;;;;;;;;22.00;53.40;;;;;;5084586;28;19933;-73
2023/10/04 00:38:22;;;;;;;;;;;22.00;53.40;;;;;;5078461;28;19931;-72
2023/10/04 00:40:50;;;;;;;;;;;22.00;53.40;;;;;;5077805;28;19921;-73
2023/10/04 00:43:19;;;;;;;;;;;22.00;53.40;;;;;;5090165;28;19928;-72
2023/10/04 00:45:47;;;;;;;;;;;22.00;53.40;;;;;;5085531;28;19920;-73
2023/10/04 00:48:17;;;;;;;;;;;22.00;53.40;;;;;;5077283;28;20174;-73
2023/10/04 00:50:44;;;;;;;;;;;22.00;53.30;;;;;;5071732;28;19920;-73
2023/10/04 00:53:13;;;;;;;;;;;22.00;53.20;;;;;;5082684;28;19923;-73
2023/10/04 00:55:40;;;;;;;;;;;22.00;53.30;;;;;;5045788;28;19920;-72
2023/10/04 00:58:08;;;;;;;;;;;22.00;53.20;;;;;;5071326;28;19920;-73
2023/10/04 01:00:36;;;;;;;;;;;22.00;53.20;;;;;;5081516;28;19973;-74
2023/10/04 01:03:03;;;;;;;;;;;22.00;53.20;;;;;;5080178;28;19925;-72
2023/10/04 01:05:31;;;;;;;;;;;22.00;53.20;;;;;;5075210;28;20008;-73
2023/10/04 01:07:58;;;;;;;;;;;22.00;53.20;;;;;;5078663;28;19942;-73
2023/10/04 01:10:32;;;;;;;;;;;22.00;53.20;;;;;;5072403;28;19920;-72
2023/10/04 01:13:01;;;;;;;;;;;22.00;53.10;;;;;;5083154;28;19920;-72
2023/10/04 01:15:30;;;;;;;;;;;22.00;53.10;;;;;;5083588;28;19926;-73
2023/10/04 01:17:57;;;;;;;;;;;22.00;53.10;;;;;;5075648;28;19969;-73
2023/10/04 01:20:24;;;;;;;;;;;22.00;53.10;;;;;;5083012;28;19920;-73
2023/10/04 01:22:52;;;;;;;;;;;22.00;53.10;;;;;;5076603;28;20128;-71
2023/10/04 01:25:19;;;;;;;;;;;22.00;53.10;;;;;;5068771;28;19924;-72
2023/10/04 01:27:46;;;;;;;;;;;22.00;53.00;;;;;;5077196;28;20031;-72
2023/10/04 01:30:14;;;;;;;;;;;22.00;53.00;;;;;;5084920;28;19992;-72
2023/10/04 01:32:41;;;;;;;;;;;22.00;53.00;;;;;;5074825;28;19958;-73
2023/10/04 01:35:08;;;;;;;;;;;22.00;53.00;;;;;;5081414;28;20376;-73
2023/10/04 01:37:38;;;;;;;;;;;22.00;53.10;;;;;;5073431;28;20000;-73
2023/10/04 01:40:12;;;;;;;;;;;22.00;53.00;;;;;;5073660;28;19920;-73
2023/10/04 01:42:40;;;;;;;;;;;21.90;52.90;;;;;;5074495;28;19928;-73
2023/10/04 01:45:09;;;;;;;;;;;22.00;53.00;;;;;;5097906;28;19948;-73
2023/10/04 01:47:36;;;;;;;;;;;21.90;52.90;;;;;;5083910;28;19920;-73
2023/10/04 01:50:05;;;;;;;;;;;22.00;53.00;;;;;;5072550;28;19928;-73
2023/10/04 01:52:33;;;;;;;;;;;21.90;52.90;;;;;;5069528;28;19920;-73
2023/10/04 01:55:00;;;;;;;;;;;22.00;53.00;;;;;;5077826;28;19927;-72
2023/10/04 01:57:29;;;;;;;;;;;22.00;53.00;;;;;;5073326;28;19927;-73
2023/10/04 01:59:56;;;;;;;;;;;22.00;53.00;;;;;;5073489;28;19942;-73
2023/10/04 02:02:23;;;;;;;;;;;22.00;53.00;;;;;;5074963;28;19930;-73
2023/10/04 02:04:53;;;;;;;;;;;22.00;52.90;;;;;;5082590;28;19920;-73
2023/10/04 02:07:23;;;;;;;;;;;22.00;52.90;;;;;;5078467;28;20035;-73
2023/10/04 02:09:52;;;;;;;;;;;22.00;53.00;;;;;;5081673;28;20013;-74
2023/10/04 02:12:20;;;;;;;;;;;22.00;52.90;;;;;;5084301;28;19920;-73
2023/10/04 02:14:48;;;;;;;;;;;22.00;52.90;;;;;;5080511;28;19920;-73
2023/10/04 02:17:17;;;;;;;;;;;21.90;52.90;;;;;;5074490;28;19964;-73
2023/10/04 02:19:44;;;;;;;;;;;21.90;52.90;;;;;;5079847;28;19924;-73
2023/10/04 02:22:12;;;;;;;;;;;21.90;52.90;;;;;;5082917;28;19920;-73
2023/10/04 02:24:39;;;;;;;;;;;21.90;52.80;;;;;;5070703;28;19933;-73
2023/10/04 02:27:07;;;;;;;;;;;21.90;52.70;;;;;;5079757;28;20030;-72
2023/10/04 02:29:34;;;;;;;;;;;21.90;52.80;;;;;;5072609;28;19931;-73
2023/10/04 02:32:09;;;;;;;;;;;21.90;52.80;;;;;;5083776;28;19927;-72
2023/10/04 02:34:36;;;;;;;;;;;21.90;52.80;;;;;;5073225;28;19968;-72
2023/10/04 02:37:06;;;;;;;;;;;21.90;52.90;;;;;;5079766;28;19920;-73
2023/10/04 02:39:33;;;;;;;;;;;21.90;52.90;;;;;;5072592;28;19924;-73
2023/10/04 02:42:00;;;;;;;;;;;21.90;52.90;;;;;;5080250;28;19927;-71
2023/10/04 02:44:27;;;;;;;;;;;21.90;52.90;;;;;;5079682;28;19974;-72
2023/10/04 02:46:53;;;;;;;;;;;21.90;52.90;;;;;;5079973;28;19925;-73
2023/10/04 02:49:23;;;;;;;;;;;21.90;52.90;;;;;;5083694;28;19924;-72
2023/10/04 02:51:50;;;;;;;;;;;21.90;52.90;;;;;;5089796;28;19924;-72
2023/10/04 02:54:17;;;;;;;;;;;21.90;52.90;;;;;;5081886;28;19927;-73
2023/10/04 02:56:46;;;;;;;;;;;21.90;52.90;;;;;;5080567;28;20081;-73
2023/10/04 02:59:16;;;;;;;;;;;21.90;52.90;;;;;;5091345;28;20010;-73
2023/10/04 03:01:42;;;;;;;;;;;21.90;52.90;;;;;;5075001;28;19928;-74
2023/10/04 03:04:15;;;;;;;;;;;21.90;52.80;;;;;;5086794;28;19920;-75
2023/10/04 03:06:45;;;;;;;;;;;21.90;52.80;;;;;;5082647;28;19921;-74
2023/10/04 03:09:12;;;;;;;;;;;21.90;52.80;;;;;;5090181;28;20023;-73
2023/10/04 03:11:39;;;;;;;;;;;21.90;52.80;;;;;;5085174;28;19932;-72
2023/10/04 03:14:06;;;;;;;;;;;21.90;52.80;;;;;;5086645;28;19999;-72
2023/10/04 03:16:34;;;;;;;;;;;21.90;52.80;;;;;;5080237;28;19952;-72
2023/10/04 03:19:03;;;;;;;;;;;21.90;52.70;;;;;;5090270;28;19921;-73
2023/10/04 03:21:31;;;;;;;;;;;21.90;52.80;;;;;;5077568;28;19920;-73
2023/10/04 03:24:00;;;;;;;;;;;21.90;52.70;;;;;;5075085;28;20024;-73
2023/10/04 03:26:29;;;;;;;;;;;21.90;52.80;;;;;;5078074;28;19920;-73
2023/10/04 03:28:55;;;;;;;;;;;21.90;52.70;;;;;;5104485;28;20003;-73
2023/10/04 03:31:24;;;;;;;;;;;21.90;52.70;;;;;;5081367;28;20073;-73
2023/10/04 03:33:53;;;;;;;;;;;21.90;52.70;;;;;;5072275;28;19920;-73
2023/10/04 03:36:19;;;;;;;;;;;21.90;52.70;;;;;;5081000;28;19920;-73
2023/10/04 03:38:49;;;;;;;;;;;21.90;52.60;;;;;;5088518;28;19934;-73
2023/10/04 03:41:19;;;;;;;;;;;21.90;52.60;;;;;;5075289;28;19921;-74
2023/10/04 03:43:47;;;;;;;;;;;21.90;52.60;;;;;;5070177;28;19932;-73
2023/10/04 03:46:18;;;;;;;;;;;21.90;52.60;;;;;;5080203;28;19935;-72
2023/10/04 03:48:45;;;;;;;;;;;21.90;52.60;;;;;;5084055;28;19925;-73
2023/10/04 03:51:12;;;;;;;;;;;21.90;52.50;;;;;;5081347;28;19920;-73
2023/10/04 03:53:41;;;;;;;;;;;21.90;52.50;;;;;;5089457;28;19986;-73
2023/10/04 03:56:10;;;;;;;;;;;21.90;52.50;;;;;;5073422;28;19942;-73
2023/10/04 03:58:40;;;;;;;;;;;21.90;52.50;;;;;;5079867;28;19926;-73
2023/10/04 04:01:08;;;;;;;;;;;21.90;52.50;;;;;;5061286;28;19967;-73
2023/10/04 04:03:35;;;;;;;;;;;21.90;52.50;;;;;;5077741;28;20015;-73
2023/10/04 04:06:02;;;;;;;;;;;21.90;52.50;;;;;;5089289;28;19931;-73
2023/10/04 04:08:28;;;;;;;;;;;21.90;52.50;;;;;;5084289;28;19931;-72
2023/10/04 04:10:55;;;;;;;;;;;21.90;53.00;;;;;;5091364;28;19924;-72
2023/10/04 04:13:23;;;;;;;;;;;21.90;52.50;;;;;;5087395;28;19923;-72
2023/10/04 04:15:52;;;;;;;;;;;21.90;52.50;;;;;;5089683;28;19928;-72
2023/10/04 04:18:21;;;;;;;;;;;21.90;52.40;;;;;;5087924;28;19963;-72
2023/10/04 04:20:48;;;;;;;;;;;21.80;52.40;;;;;;5087159;28;19977;-72
2023/10/04 04:23:15;;;;;;;;;;;21.90;52.40;;;;;;5083869;28;19924;-73
2023/10/04 04:25:42;;;;;;;;;;;21.90;52.40;;;;;;5077336;28;19920;-72
2023/10/04 04:28:12;;;;;;;;;;;21.90;52.40;;;;;;5080151;28;19946;-73
2023/10/04 04:30:39;;;;;;;;;;;21.90;52.30;;;;;;5077362;28;19929;-72
2023/10/04 04:33:07;;;;;;;;;;;21.90;52.40;;;;;;5086148;28;19920;-72
2023/10/04 04:35:47;;;;;;;;;;;21.90;52.30;;;;;;5073383;28;20086;-73
2023/10/04 04:38:16;;;;;;;;;;;21.90;52.40;;;;;;5088671;28;20007;-73
2023/10/04 04:40:47;;;;;;;;;;;21.80;52.30;;;;;;5090586;28;19920;-72
2023/10/04 04:43:26;;;;;;;;;;;21.90;52.40;;;;;;5085685;28;19934;-72
2023/10/04 04:45:53;;;;;;;;;;;21.80;52.30;;;;;;5076204;28;20015;-73
2023/10/04 04:48:23;;;;;;;;;;;21.80;52.30;;;;;;5079433;28;19925;-73
2023/10/04 04:50:51;;;;;;;;;;;21.90;52.30;;;;;;5078615;28;19920;-71
2023/10/04 04:53:22;;;;;;;;;;;21.80;52.30;;;;;;5076957;28;19924;-73
2023/10/04 04:55:49;;;;;;;;;;;21.90;52.30;;;;;;5079896;28;19921;-72
2023/10/04 04:58:18;;;;;;;;;;;21.80;52.30;;;;;;5091498;28;19928;-72
2023/10/04 05:00:47;;;;;;;;;;;21.80;52.30;;;;;;5069003;28;19924;-73
2023/10/04 05:03:14;;;;;;;;;;;21.80;52.30;;;;;;5080613;28;19974;-72
2023/10/04 05:05:42;;;;;;;;;;;21.90;52.40;;;;;;5070353;28;19964;-72
2023/10/04 05:08:09;;;;;;;;;;;21.80;52.30;;;;;;5078765;28;19927;-71
2023/10/04 05:10:38;;;;;;;;;;;21.80;52.30;;;;;;5073655;28;19928;-71
2023/10/04 05:13:07;;;;;;;;;;;21.80;52.30;;;;;;5077979;28;19930;-72
2023/10/04 05:15:35;;;;;;;;;;;21.80;52.30;;;;;;5086034;28;19987;-72
2023/10/04 05:18:15;;;;;;;;;;;21.80;52.40;;;;;;5087506;28;19920;-72
2023/10/04 05:20:43;;;;;;;;;;;21.80;52.40;;;;;;5079888;28;19920;-71
2023/10/04 05:23:10;;;;;;;;;;;21.80;52.30;;;;;;5078325;28;19920;-72
2023/10/04 05:25:37;;;;;;;;;;;21.80;52.30;;;;;;5085313;28;19966;-72
2023/10/04 05:28:04;;;;;;;;;;;21.80;52.40;;;;;;5090224;28;19920;-72
2023/10/04 05:30:31;;;;;;;;;;;21.80;52.40;;;;;;5090475;28;20272;-72
2023/10/04 05:32:58;;;;;;;;;;;21.80;52.40;;;;;;5087757;28;19932;-72
2023/10/04 05:35:27;;;;;;;;;;;21.80;52.50;;;;;;5083843;28;20641;-73
2023/10/04 05:37:55;;;;;;;;;;;21.90;52.60;;;;;;5087339;28;20007;-73
2023/10/04 05:40:25;;;;;;;;;;;21.90;52.60;;;;;;5087018;28;19924;-73
2023/10/04 05:42:53;;;;;;;;;;;21.90;52.70;;;;;;5086779;28;20025;-73
2023/10/04 05:45:20;;;;;;;;;;;21.90;53.30;;;;;;5086583;28;19933;-72
2023/10/04 05:47:48;;;;;;;;;;;21.90;52.70;;;;;;5089078;28;19953;-72
2023/10/04 05:50:17;;;;;;;;;;;21.90;52.70;;;;;;5101346;28;20015;-72
2023/10/04 05:52:44;;;;;;;;;;;21.90;52.60;;;;;;5085471;28;20019;-73
2023/10/04 05:55:13;;;;;;;;;;;21.90;52.70;;;;;;5084615;28;19954;-73
2023/10/04 05:57:40;;;;;;;;;;;21.90;52.70;;;;;;5087424;28;19932;-72
2023/10/04 06:00:22;;;;;;;;;;;21.90;52.60;;;;;;5085768;28;19924;-72
2023/10/04 06:02:49;;;;;;;;;;;21.90;52.60;;;;;;5081696;28;19920;-72
2023/10/04 06:05:16;;;;;;;;;;;21.90;52.60;;;;;;5083276;28;19921;-72
2023/10/04 06:07:43;;;;;;;;;;;21.90;52.60;;;;;;5088724;28;19924;-72
2023/10/04 06:10:11;;;;;;;;;;;21.90;52.60;;;;;;5077309;28;19924;-72
2023/10/04 06:12:39;;;;;;;;;;;21.90;52.60;;;;;;5088073;28;19920;-73
2023/10/04 06:15:10;;;;;;;;;;;21.90;52.60;;;;;;5085250;28;19925;-72
2023/10/04 06:17:38;;;;;;;;;;;21.90;52.60;;;;;;5081400;28;19924;-73
2023/10/04 06:20:22;;;;;;;;;;;21.90;52.60;;;;;;5076802;28;20015;-71
2023/10/04 06:22:51;;;;;;;;;;;21.90;52.60;;;;;;5089565;28;19920;-72
2023/10/04 06:25:17;;;;;;;;;;;21.90;52.60;;;;;;5080664;28;19924;-72
2023/10/04 06:27:45;;;;;;;;;;;21.90;52.70;;;;;;5077840;28;19920;-72
2023/10/04 06:30:13;;;;;;;;;;;21.90;52.60;;;;;;5086717;28;19928;-72
2023/10/04 06:32:39;;;;;;;;;;;21.90;52.60;;;;;;5075142;28;19932;-73
2023/10/04 06:35:08;;;;;;;;;;;21.90;52.60;;;;;;5069249;28;19932;-73
2023/10/04 06:37:34;;;;;;;;;;;21.90;52.60;;;;;;5079744;28;19969;-70
2023/10/04 06:40:04;;;;;;;;;;;21.90;52.70;;;;;;5079433;28;20531;-74
2023/10/04 06:42:31;;;;;;;;;;;21.90;52.70;;;;;;5080803;28;19920;-69
2023/10/04 06:44:59;;;;;;;;;;;21.90;52.70;;;;;;5075164;28;19924;-68
2023/10/04 06:47:27;;;;;;;;;;;21.90;52.70;;;;;;5082565;28;19927;-71
2023/10/04 06:49:54;;;;;;;;;;;21.90;52.70;;;;;;5079442;28;19963;-74
2023/10/04 06:52:21;;;;;;;;;;;21.90;52.70;;;;;;5087099;28;19932;-78
2023/10/04 06:54:47;;;;;;;;;;;22.00;52.90;;;;;;5069604;28;19924;-75
2023/10/04 06:57:14;;;;;;;;;;;22.00;52.80;;;;;;5082706;28;19928;-73
2023/10/04 06:59:41;;;;;;;;;;;22.00;52.90;;;;;;5072884;28;19963;-72
2023/10/04 07:02:09;;;;;;;;;;;22.00;52.90;;;;;;5057345;28;19950;-72
2023/10/04 07:04:36;;;;;;;;;;;22.00;52.90;;;;;;5048384;28;19925;-74
2023/10/04 07:07:03;;;;;;;;;;;22.00;52.90;;;;;;5045418;28;19933;-72
2023/10/04 07:09:29;;;;;;;;;;;22.00;52.90;;;;;;5051324;28;19940;-75
2023/10/04 07:11:56;;;;;;;;;;;22.00;52.90;;;;;;5054211;28;19931;-69
2023/10/04 07:14:23;;;;;;;;;;;22.00;52.90;;;;;;5046963;28;19958;-73
2023/10/04 07:16:50;;;;;;;;;;;22.00;52.90;;;;;;5045793;28;19921;-72
2023/10/04 07:19:18;;;;;;;;;;;22.00;52.90;;;;;;5047399;28;20073;-73
2023/10/04 07:21:45;;;;;;;;;;;22.00;52.90;;;;;;5060602;28;19977;-72
2023/10/04 07:24:11;;;;;;;;;;;22.00;52.80;;;;;;5079211;28;19925;-71
2023/10/04 07:26:38;;;;;;;;;;;22.00;52.80;;;;;;5080323;28;20010;-71
2023/10/04 07:29:05;;;;;;;;;;;22.00;52.80;;;;;;5077261;28;20015;-73
2023/10/04 07:31:34;;;;;;;;;;;22.00;53.30;;;;;;5057030;28;19920;-72
2023/10/04 07:34:02;;;;;;;;;;;22.00;52.70;;;;;;5084354;28;19967;-75
2023/10/04 07:36:31;;;;;;;;;;;22.00;52.70;;;;;;5080365;28;20346;-72
2023/10/04 07:38:58;;;;;;;;;;;22.00;52.70;;;;;;5083052;28;19920;-72
2023/10/04 07:41:25;;;;;;;;;;;22.00;52.60;;;;;;5088664;28;19970;-73
2023/10/04 07:43:52;;;;;;;;;;;22.00;52.60;;;;;;5086656;28;19932;-74
2023/10/04 07:46:19;;;;;;;;;;;22.00;52.70;;;;;;5090346;28;19997;-71
2023/10/04 07:48:47;;;;;;;;;;;22.00;52.70;;;;;;5074413;28;19926;-73
2023/10/04 07:51:13;;;;;;;;;;;22.00;52.60;;;;;;5087486;28;19928;-74
2023/10/04 07:53:42;;;;;;;;;;;22.00;52.60;;;;;;5090674;28;19925;-74
2023/10/04 07:56:11;;;;;;;;;;;22.00;52.60;;;;;;5068926;28;19925;-72
2023/10/04 07:58:38;;;;;;;;;;;22.00;52.60;;;;;;5081851;28;19959;-76
2023/10/04 08:01:04;;;;;;;;;;;22.00;52.60;;;;;;5080791;28;19993;-73
2023/10/04 08:03:32;;;;;;;;;;;22.00;52.60;;;;;;5088309;28;19920;-74
2023/10/04 08:05:59;;;;;;;;;;;22.00;52.60;;;;;;5076000;28;19995;-71
2023/10/04 08:08:26;;;;;;;;;;;22.00;52.60;;;;;;5098033;28;19920;-72
2023/10/04 08:10:55;;;;;;;;;;;22.00;52.60;;;;;;5082355;28;19932;-73
2023/10/04 08:13:21;;;;;;;;;;;22.00;52.60;;;;;;5075387;28;19928;-71
2023/10/04 08:15:48;;;;;;;;;;;22.00;52.60;;;;;;5080263;28;20168;-75
2023/10/04 08:18:16;;;;;;;;;;;22.10;52.80;;;;;;5099546;28;19943;-70
2023/10/04 08:20:43;;;;;;;;;;;22.00;52.70;;;;;;5102794;28;20479;-75
2023/10/04 08:23:10;;;;;;;;;;;22.10;52.80;;;;;;5080853;28;19964;-72
2023/10/04 08:25:37;;;;;;;;;;;22.10;52.80;;;;;;5078429;28;19927;-72
2023/10/04 08:28:08;;;;;;;;;;;22.10;52.80;;;;;;5077192;28;19970;-73
2023/10/04 08:30:38;;;;;;;;;;;22.10;52.80;;;;;;5067678;28;19974;-74
2023/10/04 08:33:05;;;;;;;;;;;22.10;52.80;;;;;;5074782;28;19920;-74
2023/10/04 08:35:36;;;;;;;;;;;22.10;52.80;;;;;;5074410;28;20320;-72
2023/10/04 08:38:04;;;;;;;;;;;22.10;52.80;;;;;;5074695;28;19920;-72
2023/10/04 08:40:31;;;;;;;;;;;22.10;52.80;;;;;;5071310;28;20017;-75
2023/10/04 08:42:59;;;;;;;;;;;22.10;52.80;;;;;;5069882;28;19921;-73
2023/10/04 08:45:29;;;;;;;;;;;22.10;52.90;;;;;;5077734;28;19926;-72
2023/10/04 08:47:56;;;;;;;;;;;22.10;52.90;;;;;;5080189;28;19920;-74
2023/10/04 08:50:29;;;;;;;;;;;22.10;52.90;;;;;;5082656;28;19975;-71
2023/10/04 08:52:57;;;;;;;;;;;22.10;52.90;;;;;;5078805;28;19933;-69
2023/10/04 08:55:24;;;;;;;;;;;22.10;52.90;;;;;;5069638;28;19924;-72
2023/10/04 08:57:51;;;;;;;;;;;22.10;52.90;;;;;;5071780;28;19920;-73
2023/10/04 09:00:23;;;;;;;;;;;22.10;52.90;;;;;;5081518;28;20314;-70
2023/10/04 09:02:51;;;;;;;;;;;22.10;52.90;;;;;;5071140;28;19924;-76
2023/10/04 09:05:23;;;;;;;;;;;22.10;52.90;;;;;;5075375;28;19938;-73
2023/10/04 09:07:50;;;;;;;;;;;22.10;52.90;;;;;;5063174;28;20015;-75
2023/10/04 09:10:17;;;;;;;;;;;22.20;52.90;;;;;;5073810;28;19950;-73
2023/10/04 09:12:43;;;;;;;;;;;22.10;53.40;;;;;;5075168;28;19939;-72
2023/10/04 09:15:11;;;;;;;;;;;22.20;53.00;;;;;;5071348;28;19924;-70
2023/10/04 09:17:46;;;;;;;;;;;22.10;52.90;;;;;;5063856;28;19944;-73
2023/10/04 09:20:16;;;;;;;;;;;22.20;52.90;;;;;;5060889;28;20011;-74
2023/10/04 09:22:43;;;;;;;;;;;22.10;52.90;;;;;;5074432;28;19920;-73
2023/10/04 09:25:10;;;;;;;;;;;22.20;53.00;;;;;;5069089;28;19943;-71
2023/10/04 09:27:37;;;;;;;;;;;22.20;53.00;;;;;;5072474;28;19921;-75
2023/10/04 09:30:20;;;;;;;;;;;22.20;53.00;;;;;;5074458;28;20015;-75
2023/10/04 09:32:47;;;;;;;;;;;22.10;52.90;;;;;;5068723;28;19927;-77
2023/10/04 09:35:18;;;;;;;;;;;22.20;53.00;;;;;;5065913;28;19927;-72
2023/10/04 09:37:45;;;;;;;;;;;22.10;52.90;;;;;;5061458;28;19970;-71
2023/10/04 09:40:13;;;;;;;;;;;22.20;53.00;;;;;;5065924;28;19921;-76
2023/10/04 09:42:47;;;;;;;;;;;22.10;52.90;;;;;;5064203;28;19924;-71
2023/10/04 09:45:14;;;;;;;;;;;22.20;53.00;;;;;;5064133;28;19920;-74
2023/10/04 09:47:42;;;;;;;;;;;22.20;53.10;;;;;;5067420;28;19927;-70
2023/10/04 09:50:11;;;;;;;;;;;22.20;53.10;;;;;;5065673;28;19925;-72
2023/10/04 09:52:39;;;;;;;;;;;22.20;53.10;;;;;;5064553;28;19952;-70
2023/10/04 09:55:08;;;;;;;;;;;22.20;53.10;;;;;;5060552;28;20362;-72
2023/10/04 09:57:35;;;;;;;;;;;22.20;53.10;;;;;;5070352;28;19927;-70
2023/10/04 10:00:02;;;;;;;;;;;22.20;53.10;;;;;;5072494;28;20128;-71
2023/10/04 10:02:29;;;;;;;;;;;22.30;53.20;;;;;;5068992;28;19963;-75
2023/10/04 10:04:56;;;;;;;;;;;22.30;53.20;;;;;;5059956;28;20043;-72
2023/10/04 10:07:25;;;;;;;;;;;22.30;53.20;;;;;;5082573;28;19920;-70
2023/10/04 10:09:57;;;;;;;;;;;22.30;53.10;;;;;;5071235;28;20266;-70
2023/10/04 10:12:23;;;;;;;;;;;22.30;53.10;;;;;;5063809;28;19921;-68
2023/10/04 10:14:50;;;;;;;;;;;22.30;53.00;;;;;;5064005;28;19924;-68
2023/10/04 10:17:18;;;;;;;;;;;22.30;53.10;;;;;;5052432;28;19966;-69
2023/10/04 10:19:44;;;;;;;;;;;22.30;53.10;;;;;;5066183;28;19921;-69
2023/10/04 10:22:15;;;;;;;;;;;22.30;53.10;;;;;;5065860;28;19921;-69
2023/10/04 10:24:45;;;;;;;;;;;22.30;53.10;;;;;;5070580;28;19924;-68
2023/10/04 10:27:22;;;;;;;;;;;22.30;53.20;;;;;;5071237;28;19928;-68
2023/10/04 10:29:49;;;;;;;;;;;22.30;53.20;;;;;;5071001;28;19937;-69
2023/10/04 10:32:17;;;;;;;;;;;22.30;53.20;;;;;;5070676;28;19936;-72
2023/10/04 10:34:44;;;;;;;;;;;22.30;53.20;;;;;;5065169;28;20007;-70
2023/10/04 10:37:17;;;;;;;;;;;22.30;53.20;;;;;;5060587;28;19980;-70
2023/10/04 10:39:44;;;;;;;;;;;22.30;53.20;;;;;;5060061;28;19933;-70
2023/10/04 10:42:11;;;;;;;;;;;22.30;53.20;;;;;;5069742;28;19920;-70
2023/10/04 10:44:40;;;;;;;;;;;22.30;53.20;;;;;;5068996;28;19954;-71
2023/10/04 10:47:08;;;;;;;;;;;22.30;53.20;;;;;;5077866;28;19932;-71
2023/10/04 10:49:41;;;;;;;;;;;22.40;53.30;;;;;;5063116;28;19927;-72
2023/10/04 10:52:09;;;;;;;;;;;22.40;53.30;;;;;;5062004;28;19932;-71
2023/10/04 10:54:36;;;;;;;;;;;22.30;53.30;;;;;;5066229;28;19935;-70
2023/10/04 10:57:05;;;;;;;;;;;22.40;53.30;;;;;;5075274;28;19998;-70
2023/10/04 10:59:32;;;;;;;;;;;22.40;53.30;;;;;;5080490;28;19927;-70
2023/10/04 11:02:01;;;;;;;;;;;22.40;53.30;;;;;;5075154;28;19920;-70
2023/10/04 11:04:28;;;;;;;;;;;22.40;53.30;;;;;;5080058;28;19939;-71
2023/10/04 11:06:55;;;;;;;;;;;22.40;53.20;;;;;;5086851;28;19928;-70
2023/10/04 11:09:22;;;;;;;;;;;22.40;53.10;;;;;;5072296;28;19920;-70
2023/10/04 11:11:49;;;;;;;;;;;22.40;53.00;;;;;;5061935;28;19932;-70
2023/10/04 11:14:17;;;;;;;;;;;22.30;52.70;;;;;;5073294;28;19935;-70
2023/10/04 11:16:44;;;;;;;;;;;22.30;52.70;;;;;;5076784;28;19920;-70
2023/10/04 11:19:12;;;;;;;;;;;22.30;52.50;;;;;;5077199;28;19974;-69
2023/10/04 11:21:39;;;;;;;;;;;22.30;52.50;;;;;;5079425;28;19932;-70
2023/10/04 11:24:09;;;;;;;;;;;22.30;52.30;;;;;;5080725;28;19924;-69
2023/10/04 11:26:39;;;;;;;;;;;22.30;52.20;;;;;;5073825;28;19921;-76
2023/10/04 11:29:06;;;;;;;;;;;22.30;52.20;;;;;;5080632;28;19929;-71
2023/10/04 11:31:33;;;;;;;;;;;22.30;52.20;;;;;;5079888;28;19920;-70
2023/10/04 11:34:00;;;;;;;;;;;22.30;52.20;;;;;;5075195;28;20007;-71
2023/10/04 11:36:28;;;;;;;;;;;22.30;52.10;;;;;;5080922;28;19927;-71
2023/10/04 11:38:55;;;;;;;;;;;22.30;52.00;;;;;;5079300;28;19966;-70
2023/10/04 11:41:28;;;;;;;;;;;22.30;52.00;;;;;;5080616;28;19928;-70
2023/10/04 11:43:59;;;;;;;;;;;22.30;51.90;;;;;;5069173;28;20305;-69
2023/10/04 11:46:26;;;;;;;;;;;22.30;51.90;;;;;;5075472;28;19927;-70
2023/10/04 11:49:08;;;;;;;;;;;22.30;51.90;;;;;;5080425;28;19924;-70
2023/10/04 11:51:40;;;;;;;;;;;22.30;51.90;;;;;;5084142;28;19920;-70
2023/10/04 11:54:06;;;;;;;;;;;22.30;51.80;;;;;;5085082;28;20269;-72
2023/10/04 11:56:39;;;;;;;;;;;22.30;51.80;;;;;;5075980;28;19931;-71
2023/10/04 11:59:06;;;;;;;;;;;22.30;51.70;;;;;;5075567;28;20015;-70
2023/10/04 12:01:32;;;;;;;;;;;22.20;51.60;;;;;;5063113;28;19920;-69
2023/10/04 12:03:59;;;;;;;;;;;22.20;51.50;;;;;;5063728;28;19946;-70
2023/10/04 12:06:26;;;;;;;;;;;22.20;51.40;;;;;;5069634;28;19924;-70
2023/10/04 12:08:55;;;;;;;;;;;22.30;51.60;;;;;;5061343;28;19929;-68
2023/10/04 12:11:23;;;;;;;;;;;22.30;51.50;;;;;;5065394;28;19929;-69
2023/10/04 12:13:50;;;;;;;;;;;22.20;51.50;;;;;;5065093;28;19927;-68
2023/10/04 12:16:17;;;;;;;;;;;22.30;51.60;;;;;;5063023;28;19950;-68
2023/10/04 12:18:44;;;;;;;;;;;22.30;51.60;;;;;;5068120;28;19967;-70
2023/10/04 12:21:11;;;;;;;;;;;22.30;51.70;;;;;;5064629;28;19970;-69
2023/10/04 12:23:37;;;;;;;;;;;22.30;51.70;;;;;;5058892;28;20431;-69
2023/10/04 12:26:06;;;;;;;;;;;22.30;51.60;;;;;;5066460;28;19920;-68
2023/10/04 12:28:35;;;;;;;;;;;22.30;51.70;;;;;;5066808;28;20023;-68
2023/10/04 12:31:05;;;;;;;;;;;22.30;51.60;;;;;;5084644;28;19924;-62
2023/10/04 12:33:34;;;;;;;;;;;22.30;51.70;;;;;;5068726;28;19925;-61
2023/10/04 12:36:01;;;;;;;;;;;22.30;51.60;;;;;;5065701;28;19927;-65
2023/10/04 12:38:28;;;;;;;;;;;22.40;51.80;;;;;;5062043;28;19921;-61
2023/10/04 12:40:55;;;;;;;;;;;22.40;51.70;;;;;;5067713;28;20316;-61
2023/10/04 12:43:24;;;;;;;;;;;22.40;51.70;;;;;;5069901;28;20373;-61
2023/10/04 12:45:53;;;;;;;;;;;22.40;51.70;;;;;;5063177;28;19921;-61
2023/10/04 12:48:20;;;;;;;;;;;22.40;51.70;;;;;;5058591;28;20131;-61
2023/10/04 12:50:47;;;;;;;;;;;22.40;51.70;;;;;;5067763;28;19951;-63
2023/10/04 12:53:14;;;;;;;;;;;22.50;51.80;;;;;;5060572;28;19932;-62
2023/10/04 12:55:41;;;;;;;;;;;22.40;51.60;;;;;;5064770;28;20007;-63
2023/10/04 12:58:08;;;;;;;;;;;22.50;51.70;;;;;;5055414;28;19924;-62
2023/10/04 13:00:36;;;;;;;;;;;22.50;51.70;;;;;;5065363;28;19924;-64
2023/10/04 13:03:03;;;;;;;;;;;22.50;51.70;;;;;;5067047;28;19931;-67
2023/10/04 13:05:30;;;;;;;;;;;22.50;51.70;;;;;;5063511;28;19927;-65
2023/10/04 13:07:57;;;;;;;;;;;22.50;51.70;;;;;;5075122;28;20280;-65
2023/10/04 13:10:24;;;;;;;;;;;22.50;51.60;;;;;;5081286;28;20101;-61
2023/10/04 13:12:51;;;;;;;;;;;22.50;51.70;;;;;;5064932;28;19944;-62
2023/10/04 13:15:17;;;;;;;;;;;22.60;51.70;;;;;;5069433;28;20611;-62
2023/10/04 13:17:46;;;;;;;;;;;22.50;51.60;;;;;;5065901;28;19920;-64
2023/10/04 13:20:17;;;;;;;;;;;22.60;51.70;;;;;;5062956;28;19970;-63
2023/10/04 13:22:44;;;;;;;;;;;22.50;51.60;;;;;;5066749;28;19970;-65
2023/10/04 13:25:11;;;;;;;;;;;22.50;51.60;;;;;;5068523;28;19926;-63
2023/10/04 13:27:38;;;;;;;;;;;22.50;51.60;;;;;;5063802;28;19928;-63
2023/10/04 13:30:06;;;;;;;;;;;22.50;51.60;;;;;;5063916;28;19943;-63
2023/10/04 13:32:34;;;;;;;;;;;22.50;51.60;;;;;;5062137;28;19933;-62
2023/10/04 13:35:02;;;;;;;;;;;22.50;51.60;;;;;;5067746;28;19997;-62
2023/10/04 13:37:29;;;;;;;;;;;22.60;51.60;;;;;;5064386;28;20564;-61
2023/10/04 13:39:56;;;;;;;;;;;22.50;51.60;;;;;;5064483;28;19971;-63
2023/10/04 13:42:23;;;;;;;;;;;22.60;51.60;;;;;;5064838;28;20026;-61
2023/10/04 13:44:50;;;;;;;;;;;22.60;51.60;;;;;;5061141;28;19986;-61
2023/10/04 13:47:18;;;;;;;;;;;22.60;51.60;;;;;;5065804;28;19924;-61
2023/10/04 13:49:45;;;;;;;;;;;22.60;51.60;;;;;;5064065;28;19925;-59
2023/10/04 13:52:13;;;;;;;;;;;22.60;51.50;;;;;;5067285;28;19920;-62
2023/10/04 13:54:42;;;;;;;;;;;22.60;51.50;;;;;;5067930;28;19920;-63
2023/10/04 13:57:10;;;;;;;;;;;22.60;51.50;;;;;;5071054;28;20350;-62
2023/10/04 13:59:37;;;;;;;;;;;22.60;51.50;;;;;;5069621;28;19929;-62
2023/10/04 14:02:05;;;;;;;;;;;22.60;51.50;;;;;;5077598;28;20376;-62
2023/10/04 14:04:32;;;;;;;;;;;22.60;51.50;;;;;;5068669;28;19935;-62
2023/10/04 14:06:59;;;;;;;;;;;22.60;51.40;;;;;;5066748;28;19989;-63
2023/10/04 14:09:28;;;;;;;;;;;22.60;51.50;;;;;;5062495;28;19973;-61
2023/10/04 14:11:55;;;;;;;;;;;22.60;51.40;;;;;;5068524;28;19943;-61
2023/10/04 14:14:22;;;;;;;;;;;22.60;51.40;;;;;;5062744;28;20370;-63
2023/10/04 14:16:49;;;;;;;;;;;22.60;51.40;;;;;;5061726;28;20285;-61
2023/10/04 14:19:15;;;;;;;;;;;22.60;51.30;;;;;;5065114;28;19921;-61
2023/10/04 14:21:42;;;;;;;;;;;22.60;51.30;;;;;;5063964;28;20019;-61